aviador You're here:

LFKJ Decoded Metar

AJACCIO in CORSE ISL.
Report Time2018-06-18 05:30:00
UTC Time2018-06-18 05:40:29
Flight Rules vfr VFR
Wind030° at 04 kt
W.Decomp.*RWY 02: 4.0 kt HW 0.6 kt RCW
W.Rank030° ranks 5
Current wind is below 030° avg. (5.3)
Visibility9999 m
Phenomena:N/A
Clouds:N/A
Expected CloudBase > 1,200 ft AGL from Temp-Dew spread
CeilingNone
Temp19°C (ISA +4)
Dew Point16°C (83% RH)
QNH1014 hPa
Density Alt715 ft
Elevation30 ft
Report Wrong Elevation
Raw Report
METAR LFKJ 180530Z AUTO 03004KT 010V070 CAVOK 19/16 Q1014 NOSIG=

Extra information for LFKJ:More info

Metar Taf Metar & Taf Last 4 Metars F.Rules Stats Wind Profile Meteogram Temp Stats Airport Information Weather charts Add Link Nearby VenuesMetar ALERT Operation Metar Decoded Social comments